Time;durP1;ratioP1;P1;durP2;ratioP2;P2;SDS_P1;SDS_P2;PMS_P1;PMS_P2;Temp;Humidity;BMP_temperature;BMP_pressure;BME280_temperature;BME280_humidity;BME280_pressure;Samples;Min_cycle;Max_cycle;Signal;HPM_P1;HPM_P2
2022/06/09 08:23:10;;;;;;;6.63;1.80;;;;;;;24.06;46.15;101499.34;4938476;27;20245;-64
2022/06/09 08:25:37;;;;;;;6.03;1.50;;;;;;;24.12;44.40;101500.00;4889115;28;20088;-63
2022/06/09 08:28:03;;;;;;;8.32;1.70;;;;;;;24.36;44.22;101506.34;4934644;28;20492;-63
2022/06/09 08:30:29;;;;;;;11.30;1.60;;;;;;;23.67;46.20;101507.66;4942268;28;20038;-64
2022/06/09 08:32:54;;;;;;;6.72;1.67;;;;;;;24.06;44.02;101515.31;4955648;28;20520;-62
2022/06/09 08:35:20;;;;;;;6.90;1.80;;;;;;;24.66;45.62;101515.97;4951956;28;20050;-64
2022/06/09 08:37:48;;;;;;;9.05;1.73;;;;;;;24.86;44.92;101520.63;4945144;28;20577;-63
2022/06/09 08:40:52;;;;;;;4.97;1.67;;;;;;;25.53;43.34;101523.50;4955461;28;20336;-62
2022/06/09 08:44:01;;;;;;;6.10;1.80;;;;;;;25.61;45.11;101523.25;4956583;28;20314;-63
2022/06/09 08:46:47;;;;;;;7.93;1.90;;;;;;;26.24;41.35;101522.47;4948361;28;20047;-62
2022/06/09 08:49:38;;;;;;;6.50;1.80;;;;;;;26.22;42.80;101525.22;4945059;28;20137;-65
2022/06/09 08:52:25;;;;;;;4.57;1.70;;;;;;;27.08;40.88;101526.94;4947455;28;20035;-63
2022/06/09 08:54:53;;;;;;;5.45;1.70;;;;;;;26.83;41.03;101529.78;4936972;28;20649;-63
2022/06/09 08:57:25;;;;;;;7.80;1.88;;;;;;;26.53;40.45;101524.78;4934707;28;20120;-64
2022/06/09 08:59:56;;;;;;;7.65;1.83;;;;;;;25.32;44.25;101526.97;4929534;28;20090;-63
2022/06/09 09:02:38;;;;;;;8.68;1.90;;;;;;;25.68;43.20;101522.91;4941431;28;20511;-63
2022/06/09 09:05:16;;;;;;;8.13;1.90;;;;;;;25.69;43.89;101537.16;4925441;28;20039;-63
2022/06/09 09:07:46;;;;;;;5.53;1.77;;;;;;;25.42;41.93;101533.72;4920499;28;21054;-63
2022/06/09 09:10:19;;;;;;;7.03;1.60;;;;;;;25.74;42.91;101535.16;4931046;28;20256;-63
2022/06/09 09:12:57;;;;;;;5.68;1.70;;;;;;;25.87;42.52;101539.09;4941695;28;20065;-64
2022/06/09 09:15:41;;;;;;;6.32;1.80;;;;;;;25.79;42.74;101535.88;4934597;28;20093;-62
2022/06/09 09:18:15;;;;;;;9.25;2.28;;;;;;;25.49;43.06;101540.56;4921296;28;20150;-64
2022/06/09 09:21:11;;;;;;;9.15;2.05;;;;;;;25.73;43.68;101546.81;4935170;28;20046;-63
2022/06/09 09:23:40;;;;;;;9.75;2.17;;;;;;;25.52;43.20;101540.44;4913438;28;20499;-63
2022/06/09 09:26:11;;;;;;;5.18;2.10;;;;;;;25.09;44.07;101550.94;4932117;28;20041;-63
2022/06/09 09:28:49;;;;;;;5.82;1.90;;;;;;;25.31;41.79;101552.78;4934012;28;20054;-65
2022/06/09 09:31:33;;;;;;;6.55;2.00;;;;;;;25.60;41.77;101554.41;4936224;28;20137;-64
2022/06/09 09:34:02;;;;;;;7.28;2.03;;;;;;;25.31;45.79;101570.63;4919395;28;20039;-64
2022/06/09 09:36:31;;;;;;;6.70;1.98;;;;;;;25.41;43.64;101572.00;4921193;28;20054;-64
2022/06/09 09:39:08;;;;;;;8.82;2.00;;;;;;;25.79;42.46;101574.16;4920705;28;20615;-67
2022/06/09 09:41:36;;;;;;;8.00;2.10;;;;;;;25.47;42.29;101566.44;4928565;28;20631;-64
2022/06/09 09:44:22;;;;;;;6.97;2.05;;;;;;;25.69;41.94;101569.19;4915390;28;20367;-65
2022/06/09 09:46:58;;;;;;;6.60;1.90;;;;;;;25.78;43.12;101569.72;4921969;28;20039;-66
2022/06/09 09:49:31;;;;;;;7.90;2.88;;;;;;;25.86;43.03;101574.75;4921360;28;20043;-64
2022/06/09 09:51:59;;;;;;;6.78;2.30;;;;;;;25.80;43.57;101583.88;4913985;28;20209;-64
2022/06/09 09:54:31;;;;;;;6.93;2.22;;;;;;;26.14;42.12;101587.91;4922072;28;20182;-67
2022/06/09 09:57:15;;;;;;;5.85;2.20;;;;;;;25.70;42.76;101594.97;4917711;28;20061;-68
2022/06/09 09:59:48;;;;;;;7.80;2.15;;;;;;;25.34;43.08;101595.38;4916051;28;20051;-67
2022/06/09 10:39:16;;;;;;;4.85;1.70;;;;;;;26.83;39.58;101639.47;5030089;27;20417;-58
2022/06/09 10:41:56;;;;;;;9.93;2.40;;;;;;;26.45;37.84;101639.25;5013318;28;20082;-59
2022/06/09 10:44:39;;;;;;;7.40;1.70;;;;;;;26.52;39.07;101646.09;4948828;28;20885;-57
2022/06/09 10:55:46;;;;;;;6.57;1.92;;;;;;;25.90;40.63;101656.53;4984710;28;20113;-59
2022/06/09 10:58:31;;;;;;;5.30;1.65;;;;;;;25.75;39.16;101659.78;4993735;28;20127;-58
2022/06/09 11:00:57;;;;;;;10.30;2.28;;;;;;;25.84;41.66;101654.97;4997851;28;20069;-57
2022/06/09 11:03:30;;;;;;;6.25;2.00;;;;;;;25.92;40.96;101660.03;4996481;28;20124;-57
2022/06/09 11:06:24;;;;;;;9.57;2.20;;;;;;;25.69;41.50;101655.53;4988221;28;20080;-57
2022/06/09 11:08:49;;;;;;;;;;;;;;;25.86;42.64;101663.78;4992403;28;20049;-60
2022/06/09 11:11:30;;;;;;;6.87;2.00;;;;;;;25.42;41.66;101665.41;4991358;28;19931;-59
2022/06/09 11:14:18;;;;;;;10.18;2.40;;;;;;;25.66;41.10;101671.69;4985612;28;20041;-58
2022/06/09 11:17:05;;;;;;;8.52;2.40;;;;;;;25.36;42.41;101681.63;4983861;28;20283;-60
2022/06/09 11:20:08;;;;;;;12.85;2.85;;;;;;;25.34;42.29;101675.47;4978167;28;20532;-59
2022/06/09 11:22:54;;;;;;;9.32;2.30;;;;;;;25.56;42.14;101674.69;4982334;28;20476;-58
2022/06/09 11:25:22;;;;;;;8.98;2.55;;;;;;;25.51;41.00;101676.66;4985152;28;20552;-59
2022/06/09 11:28:12;;;;;;;9.30;2.50;;;;;;;25.43;40.88;101666.28;4984059;28;20053;-59
2022/06/09 11:31:02;;;;;;;8.95;2.15;;;;;;;25.58;42.88;101673.75;4961947;28;20138;-56
2022/06/09 11:33:33;;;;;;;9.70;2.38;;;;;;;25.59;41.38;101669.28;4989959;28;20041;-58
2022/06/09 11:36:24;;;;;;;9.75;2.40;;;;;;;25.34;40.45;101669.25;4992592;28;20053;-59
2022/06/09 11:39:08;;;;;;;8.63;2.20;;;;;;;25.48;42.21;101671.44;4975400;28;21530;-57
2022/06/09 11:41:46;;;;;;;11.93;2.50;;;;;;;25.48;42.08;101680.31;4987947;28;20081;-58
2022/06/09 11:44:28;;;;;;;7.85;2.35;;;;;;;25.65;42.73;101688.63;4988990;28;20057;-58
2022/06/09 11:46:57;;;;;;;8.55;2.40;;;;;;;25.60;42.28;101681.72;4996809;28;20495;-58
2022/06/09 11:49:43;;;;;;;9.13;2.75;;;;;;;25.32;40.40;101685.31;4984720;28;20052;-58
2022/06/09 11:52:15;;;;;;;8.70;2.30;;;;;;;25.61;41.81;101673.66;4978432;28;20226;-59
2022/06/09 11:54:53;;;;;;;8.15;2.10;;;;;;;25.87;41.70;101680.69;4979194;28;20041;-59
2022/06/09 11:57:25;;;;;;;8.75;2.50;;;;;;;25.86;40.48;101681.59;4975424;28;20076;-58
2022/06/09 11:59:57;;;;;;;8.20;1.88;;;;;;;25.80;40.74;101682.72;4976688;28;22856;-58
2022/06/09 12:02:36;;;;;;;8.32;2.47;;;;;;;25.57;40.85;101688.03;4983768;28;20469;-60
2022/06/09 12:05:26;;;;;;;7.00;2.10;;;;;;;25.58;40.74;101680.88;4979218;28;20044;-58
2022/06/09 12:08:04;;;;;;;11.20;2.28;;;;;;;25.40;41.17;101688.59;4969831;28;20382;-59
2022/06/09 12:11:04;;;;;;;7.40;2.33;;;;;;;25.60;41.43;101695.06;4978888;28;20072;-59
2022/06/09 12:13:45;;;;;;;8.23;2.20;;;;;;;25.48;41.24;101690.13;4973261;28;20037;-57
2022/06/09 12:16:28;;;;;;;7.82;2.20;;;;;;;25.75;41.19;101697.16;4973283;28;20069;-58
2022/06/09 12:19:14;;;;;;;12.75;2.55;;;;;;;25.58;38.33;101696.91;4975934;28;20108;-58
2022/06/09 12:21:44;;;;;;;9.50;1.98;;;;;;;25.58;38.18;101707.59;4968054;28;20045;-59
2022/06/09 12:24:26;;;;;;;7.57;2.00;;;;;;;25.58;39.98;101703.13;4978650;28;20053;-58
2022/06/09 12:27:04;;;;;;;10.77;2.63;;;;;;;25.28;39.14;101707.72;4982268;28;20523;-58
2022/06/09 12:29:45;;;;;;;8.35;2.33;;;;;;;25.57;38.36;101713.84;4975320;28;20761;-59
2022/06/09 12:32:11;;;;;;;8.27;2.35;;;;;;;25.46;38.08;101709.75;4975028;28;20228;-57
2022/06/09 12:34:43;;;;;;;8.93;2.03;;;;;;;25.31;39.34;101710.25;4977827;28;20045;-58
2022/06/09 12:37:18;;;;;;;8.77;2.00;;;;;;;25.36;38.49;101715.47;4976364;28;20080;-58
2022/06/09 12:39:49;;;;;;;7.82;2.00;;;;;;;25.06;39.46;101712.03;4972267;28;20530;-58
2022/06/09 12:42:48;;;;;;;8.38;2.25;;;;;;;25.02;39.36;101710.38;4978254;28;20568;-58
2022/06/09 12:45:34;;;;;;;5.82;1.90;;;;;;;25.34;38.77;101707.50;4957573;28;20224;-58
2022/06/09 12:48:01;;;;;;;7.35;1.98;;;;;;;25.48;38.42;101716.81;4976886;28;20064;-58
2022/06/09 12:50:29;;;;;;;5.07;1.60;;;;;;;25.64;38.71;101718.94;4982636;28;20054;-58
2022/06/09 12:52:56;;;;;;;7.43;2.10;;;;;;;25.80;39.12;101727.25;4980925;28;20769;-58
2022/06/09 12:55:28;;;;;;;11.52;1.90;;;;;;;25.66;38.07;101719.75;4974815;28;20750;-57
2022/06/09 12:58:04;;;;;;;6.72;1.75;;;;;;;26.00;37.12;101723.84;4970816;28;20084;-59
2022/06/09 13:00:40;;;;;;;6.82;1.65;;;;;;;25.98;38.00;101728.41;4976291;28;20041;-59
2022/06/09 13:03:24;;;;;;;6.22;1.70;;;;;;;25.81;36.17;101735.22;4977481;28;20124;-58
2022/06/09 13:05:51;;;;;;;7.18;1.77;;;;;;;25.82;34.38;101736.97;4969764;28;20532;-58
2022/06/09 13:08:26;;;;;;;8.38;1.83;;;;;;;25.99;35.18;101736.34;4976957;28;20122;-60
2022/06/09 13:11:03;;;;;;;7.78;1.75;;;;;;;25.64;36.09;101737.63;4981256;28;20046;-59
2022/06/09 13:13:46;;;;;;;6.22;2.00;;;;;;;25.59;38.24;101738.72;4972603;28;20132;-60
2022/06/09 13:16:24;;;;;;;7.40;1.67;;;;;;;25.79;36.62;101747.78;4981130;28;20069;-60
2022/06/09 13:18:58;;;;;;;10.75;2.05;;;;;;;25.75;36.27;101747.91;4981646;28;20436;-59
2022/06/09 13:21:37;;;;;;;6.13;1.70;;;;;;;25.87;34.53;101750.16;4975954;28;20041;-59
2022/06/09 13:24:12;;;;;;;6.72;1.65;;;;;;;25.63;34.45;101759.91;4975471;28;20045;-60
2022/06/09 13:26:44;;;;;;;5.60;1.50;;;;;;;25.71;36.49;101764.97;4982949;28;20645;-56
2022/06/09 13:29:21;;;;;;;8.05;1.80;;;;;;;25.76;36.25;101765.69;4977910;28;20041;-59
2022/06/09 13:31:48;;;;;;;6.05;1.90;;;;;;;25.56;35.85;101770.81;4969037;28;20591;-58
2022/06/09 13:34:13;;;;;;;8.35;1.60;;;;;;;25.57;35.63;101775.25;4978186;28;20479;-58
2022/06/09 13:36:56;;;;;;;9.48;1.80;;;;;;;25.56;36.76;101774.34;4975018;28;20033;-60
2022/06/09 13:39:27;;;;;;;16.23;2.08;;;;;;;25.62;36.64;101783.97;4981773;28;20128;-60
2022/06/09 13:42:02;;;;;;;6.00;1.45;;;;;;;25.59;35.33;101776.97;4975725;28;20151;-60
2022/06/09 13:44:33;;;;;;;4.68;1.30;;;;;;;25.51;33.25;101770.97;4978068;28;20399;-60
2022/06/09 13:47:13;;;;;;;5.50;1.30;;;;;;;25.22;34.36;101776.44;4984683;28;20042;-60
2022/06/09 13:49:58;;;;;;;3.78;1.50;;;;;;;25.28;36.05;101798.47;4969729;28;20041;-63
2022/06/09 13:52:43;;;;;;;11.05;2.40;;;;;;;25.08;37.34;101795.56;4981260;28;20061;-59
2022/06/09 13:55:25;;;;;;;6.20;1.45;;;;;;;25.22;35.72;101801.31;4974292;28;20047;-60
2022/06/09 13:57:54;;;;;;;6.28;1.60;;;;;;;25.29;35.38;101810.88;4970229;28;20037;-59
2022/06/09 14:00:55;;;;;;;6.53;1.48;;;;;;;25.24;34.97;101803.94;4969504;28;20037;-60
2022/06/09 14:03:31;;;;;;;4.90;1.58;;;;;;;25.34;35.64;101816.94;4972485;28;20048;-56
2022/06/09 14:06:04;;;;;;;5.40;1.60;;;;;;;25.03;36.45;101817.06;4966338;28;20092;-62
2022/06/09 14:08:32;;;;;;;7.53;1.65;;;;;;;25.07;35.57;101819.66;4978722;28;20042;-59
2022/06/09 14:10:59;;;;;;;7.90;1.60;;;;;;;25.15;35.95;101821.13;4974018;28;20566;-57
2022/06/09 14:13:26;;;;;;;8.00;1.73;;;;;;;25.12;34.23;101833.72;4971258;28;20045;-59
2022/06/09 14:15:52;;;;;;;4.93;1.40;;;;;;;24.81;34.03;101833.75;4971476;28;20041;-59
2022/06/09 14:18:22;;;;;;;5.07;1.20;;;;;;;24.76;34.89;101836.56;4976526;28;20050;-61
2022/06/09 14:20:48;;;;;;;6.68;1.42;;;;;;;24.73;36.12;101839.31;4969989;28;20504;-59
2022/06/09 14:23:20;;;;;;;6.97;1.70;;;;;;;24.76;35.85;101833.03;4973158;28;20606;-59
2022/06/09 14:25:47;;;;;;;5.85;1.45;;;;;;;24.89;35.94;101834.41;4968347;28;20341;-59
2022/06/09 14:28:12;;;;;;;7.03;1.52;;;;;;;24.84;35.05;101828.31;4980693;28;20347;-59
2022/06/09 14:30:38;;;;;;;15.85;5.22;;;;;;;24.75;36.02;101825.94;4979575;28;20076;-59
2022/06/09 14:33:12;;;;;;;9.95;1.73;;;;;;;24.52;35.48;101832.81;4976447;28;20128;-59
2022/06/09 14:35:38;;;;;;;7.40;1.80;;;;;;;24.49;36.32;101840.03;4966714;28;20041;-59
2022/06/09 14:38:03;;;;;;;5.65;1.70;;;;;;;24.62;37.19;101841.41;4971906;28;20393;-58
2022/06/09 14:40:33;;;;;;;14.55;4.28;;;;;;;24.65;35.25;101838.66;4969680;28;20045;-59
2022/06/09 14:43:03;;;;;;;5.82;1.40;;;;;;;24.69;35.45;101843.00;4976069;28;20424;-59
2022/06/09 14:45:29;;;;;;;7.30;1.60;;;;;;;24.52;36.35;101850.59;4963059;28;20748;-58
2022/06/09 14:47:54;;;;;;;7.05;1.40;;;;;;;24.59;36.54;101847.72;4967238;28;20042;-59
2022/06/09 14:50:23;;;;;;;6.22;1.88;;;;;;;24.53;37.05;101850.56;4970900;28;20566;-58
2022/06/09 14:52:48;;;;;;;5.15;1.42;;;;;;;24.37;37.00;101857.25;4976865;28;20259;-58
2022/06/09 14:55:16;;;;;;;7.85;1.80;;;;;;;24.19;38.15;101863.09;4971471;28;20939;-57
2022/06/09 14:57:42;;;;;;;5.18;1.50;;;;;;;24.27;36.26;101861.09;4960782;28;20559;-58
2022/06/09 15:00:29;;;;;;;6.72;1.65;;;;;;;24.39;36.71;101863.41;4978314;28;20079;-59
2022/06/09 15:02:55;;;;;;;5.85;1.48;;;;;;;24.46;37.66;101866.75;4975033;28;20037;-58
2022/06/09 15:05:22;;;;;;;8.85;2.72;;;;;;;24.18;36.98;101858.63;4965655;28;20135;-57
2022/06/09 15:07:49;;;;;;;15.30;6.35;;;;;;;24.00;36.50;101862.69;4965055;28;20224;-58
2022/06/09 15:10:23;;;;;;;6.45;2.50;;;;;;;24.07;36.07;101869.59;4973207;28;20618;-58
2022/06/09 15:12:49;;;;;;;14.40;6.63;;;;;;;23.90;35.59;101874.50;4973255;28;20052;-57
2022/06/09 15:15:15;;;;;;;14.48;5.90;;;;;;;23.94;37.11;101876.16;4973780;28;20045;-58
2022/06/09 15:17:41;;;;;;;8.30;2.10;;;;;;;23.98;37.26;101871.59;4967848;28;20167;-58
2022/06/09 15:20:09;;;;;;;6.60;1.60;;;;;;;24.08;36.84;101867.81;4968070;28;20123;-58
2022/06/09 15:22:35;;;;;;;4.88;1.67;;;;;;;24.11;36.27;101868.59;4971304;28;20115;-58
2022/06/09 15:25:01;;;;;;;5.72;1.60;;;;;;;24.13;34.65;101869.44;4977924;28;20050;-58
2022/06/09 15:27:34;;;;;;;7.05;1.60;;;;;;;24.03;35.08;101864.41;4973092;28;20049;-59
2022/06/09 15:30:00;;;;;;;15.57;5.00;;;;;;;23.70;35.27;101869.66;4976624;28;20472;-58
2022/06/09 15:32:26;;;;;;;7.57;1.40;;;;;;;23.80;33.77;101867.63;4980037;28;20842;-58
2022/06/09 15:34:52;;;;;;;4.57;1.40;;;;;;;23.73;34.80;101872.25;4975219;28;20054;-59
2022/06/09 15:37:18;;;;;;;6.28;1.50;;;;;;;23.78;36.09;101875.69;4979020;28;20041;-59
2022/06/09 15:39:44;;;;;;;4.32;1.30;;;;;;;23.74;36.25;101874.00;4964227;28;20352;-58
2022/06/09 15:42:10;;;;;;;7.80;1.70;;;;;;;23.76;34.59;101869.50;4975003;28;20049;-58
2022/06/09 15:44:35;;;;;;;4.05;1.45;;;;;;;23.78;34.80;101866.81;4978379;28;20048;-58
2022/06/09 15:47:01;;;;;;;4.57;1.40;;;;;;;23.93;36.19;101868.19;4978787;28;20041;-57
2022/06/09 15:49:26;;;;;;;6.25;1.80;;;;;;;23.89;35.44;101872.75;4971801;28;20045;-58
2022/06/09 15:51:52;;;;;;;7.55;1.70;;;;;;;23.83;36.00;101871.13;4974601;28;20038;-58
2022/06/09 15:54:17;;;;;;;5.40;1.83;;;;;;;23.84;35.65;101874.66;4965928;28;20092;-58
2022/06/09 15:56:43;;;;;;;7.25;1.55;;;;;;;23.88;36.44;101876.31;4969467;28;20145;-58
2022/06/09 15:59:08;;;;;;;5.78;1.80;;;;;;;23.85;35.41;101871.06;4975207;28;20464;-58
2022/06/09 16:01:33;;;;;;;6.25;1.70;;;;;;;23.81;36.66;101874.72;4969084;28;20460;-58
2022/06/09 16:03:59;;;;;;;6.80;1.90;;;;;;;23.71;36.68;101873.22;4975280;28;20141;-57
2022/06/09 16:06:24;;;;;;;4.35;1.35;;;;;;;23.76;35.62;101868.63;4980151;28;20052;-58
2022/06/09 16:08:50;;;;;;;9.25;1.70;;;;;;;23.72;35.60;101872.31;4981702;28;20045;-59
2022/06/09 16:11:16;;;;;;;9.35;1.90;;;;;;;23.49;36.27;101872.84;4978391;28;21309;-58
2022/06/09 16:13:41;;;;;;;6.90;1.77;;;;;;;23.48;36.77;101879.09;4965629;28;20049;-58
2022/06/09 16:16:06;;;;;;;6.25;2.05;;;;;;;23.23;37.48;101870.78;4978398;28;20052;-57
2022/06/09 16:18:32;;;;;;;7.70;2.20;;;;;;;23.22;38.71;101869.03;4981715;28;20060;-58
2022/06/09 16:20:57;;;;;;;8.18;2.38;;;;;;;23.31;38.28;101878.56;4983738;28;20586;-58
2022/06/09 16:23:26;;;;;;;7.00;1.70;;;;;;;23.25;37.25;101873.41;4974729;28;20037;-57
2022/06/09 16:25:51;;;;;;;6.00;1.70;;;;;;;23.24;37.28;101879.63;4972247;28;20069;-59
2022/06/09 16:28:23;;;;;;;6.55;1.50;;;;;;;23.10;36.88;101881.75;4973831;28;20140;-59
2022/06/09 16:30:49;;;;;;;6.30;1.80;;;;;;;22.94;37.95;101881.19;4980040;28;20049;-58
2022/06/09 16:33:14;;;;;;;4.85;1.55;;;;;;;23.01;38.08;101881.03;4975320;28;20871;-58
2022/06/09 16:35:41;;;;;;;9.07;2.03;;;;;;;23.05;38.30;101879.19;4964817;28;20042;-58
2022/06/09 16:38:07;;;;;;;4.20;1.48;;;;;;;23.27;37.56;101890.22;4976546;28;20560;-58
2022/06/09 16:40:37;;;;;;;5.95;1.58;;;;;;;23.19;37.38;101878.84;4980911;28;20104;-58
2022/06/09 16:43:05;;;;;;;10.18;1.70;;;;;;;23.15;37.36;101887.81;4978352;28;20493;-58
2022/06/09 16:45:31;;;;;;;5.82;1.70;;;;;;;23.05;37.88;101895.16;4971109;28;20056;-58
2022/06/09 16:47:57;;;;;;;9.63;1.88;;;;;;;22.90;37.36;101896.34;4973835;28;20053;-58
2022/06/09 16:50:23;;;;;;;8.60;1.70;;;;;;;22.94;37.67;101891.81;4976785;28;20061;-58
2022/06/09 16:52:48;;;;;;;5.22;1.60;;;;;;;22.78;37.31;101903.69;4975271;28;20052;-58
2022/06/09 16:55:14;;;;;;;5.93;1.67;;;;;;;22.83;38.02;101902.69;4983193;28;20049;-59
2022/06/09 16:57:43;;;;;;;4.47;1.38;;;;;;;22.96;37.86;101898.88;4964206;28;20049;-58
2022/06/09 17:00:12;;;;;;;5.68;1.70;;;;;;;22.97;36.81;101897.09;4978950;28;20548;-59
2022/06/09 17:02:38;;;;;;;7.43;1.90;;;;;;;22.67;37.68;101909.22;4981225;28;20045;-58
2022/06/09 17:11:32;;;;;;;7.35;1.63;;;;;;;22.14;38.83;101908.44;5017837;27;20161;-61
2022/06/09 17:13:57;;;;;;;7.35;1.60;;;;;;;22.53;38.14;101912.13;5034102;28;20098;-59
2022/06/09 17:16:23;;;;;;;9.93;2.05;;;;;;;22.63;38.36;101907.50;5039214;28;20047;-57
2022/06/09 17:18:49;;;;;;;9.60;1.92;;;;;;;22.56;37.71;101906.78;5037997;28;20044;-58
2022/06/09 17:21:17;;;;;;;8.57;1.73;;;;;;;22.61;38.62;101904.03;5039507;27;20058;-57
2022/06/09 17:23:43;;;;;;;6.00;1.70;;;;;;;22.60;37.85;101905.81;5006888;28;20078;-57
2022/06/09 17:26:10;;;;;;;6.45;1.70;;;;;;;22.49;37.59;101913.13;5035992;28;20623;-58
2022/06/09 17:28:36;;;;;;;6.38;1.83;;;;;;;22.49;38.21;101906.91;5042037;27;20428;-58
2022/06/09 17:31:02;;;;;;;6.82;1.80;;;;;;;22.47;37.83;101909.59;5034235;28;20040;-57
2022/06/09 17:33:29;;;;;;;4.95;1.40;;;;;;;22.58;38.34;101904.94;5031933;28;20052;-58
2022/06/09 17:35:54;;;;;;;7.47;1.80;;;;;;;22.47;37.81;101903.41;5037585;27;20042;-57
2022/06/09 17:38:21;;;;;;;8.57;1.85;;;;;;;22.38;38.34;101917.75;5048463;27;20059;-60
2022/06/09 17:40:47;;;;;;;6.70;1.75;;;;;;;22.44;38.94;101908.81;5033404;27;20439;-57
2022/06/09 17:43:13;;;;;;;6.45;1.70;;;;;;;22.24;39.53;101914.47;5038962;27;20138;-58
2022/06/09 17:45:40;;;;;;;7.93;2.08;;;;;;;22.36;39.27;101914.25;5024202;27;20434;-57
2022/06/09 17:48:06;;;;;;;8.77;1.73;;;;;;;22.15;39.52;101925.25;5028522;27;20460;-57
2022/06/09 17:50:34;;;;;;;6.97;1.75;;;;;;;22.01;39.79;101928.19;5033033;27;20634;-58
2022/06/09 17:53:00;;;;;;;6.10;1.70;;;;;;;22.17;39.61;101923.44;5022950;27;20040;-58
2022/06/09 17:55:30;;;;;;;5.57;1.83;;;;;;;22.15;39.79;101922.59;5024689;28;20049;-57
2022/06/09 17:57:56;;;;;;;8.43;1.80;;;;;;;22.04;39.50;101927.22;5021631;28;20120;-57
2022/06/09 18:00:29;;;;;;;6.22;1.50;;;;;;;22.12;39.70;101927.97;5019006;28;20447;-56
2022/06/09 18:02:55;;;;;;;7.00;1.93;;;;;;;21.98;39.72;101937.94;5016090;28;20049;-58
2022/06/09 18:05:21;;;;;;;9.18;1.83;;;;;;;22.00;40.17;101934.38;5020279;27;20051;-59
2022/06/09 18:07:47;;;;;;;6.75;1.70;;;;;;;22.00;40.58;101936.16;5006008;28;20824;-58
2022/06/09 18:10:18;;;;;;;7.63;1.88;;;;;;;21.92;40.82;101932.72;5023116;28;20574;-60
2022/06/09 18:12:44;;;;;;;7.45;1.77;;;;;;;21.58;41.06;101937.69;5018539;28;20033;-58
2022/06/09 18:15:09;;;;;;;8.50;1.70;;;;;;;21.64;40.85;101930.53;5017039;28;20039;-62
2022/06/09 18:17:35;;;;;;;8.70;1.80;;;;;;;21.67;40.91;101938.41;5005717;28;20036;-59
2022/06/09 18:20:04;;;;;;;6.85;1.73;;;;;;;21.54;41.18;101931.53;5018572;28;20579;-61
2022/06/09 18:22:30;;;;;;;6.38;1.60;;;;;;;21.57;41.68;101933.28;5001688;28;20072;-61
2022/06/09 18:24:55;;;;;;;8.32;1.70;;;;;;;21.45;41.35;101935.22;5004500;28;20120;-59
2022/06/09 18:27:21;;;;;;;9.63;1.58;;;;;;;21.44;41.54;101945.84;4995797;28;20045;-59
2022/06/09 18:29:46;;;;;;;6.43;1.75;;;;;;;21.43;41.62;101937.00;4991803;28;20418;-60
2022/06/09 18:32:11;;;;;;;7.95;2.00;;;;;;;21.38;41.67;101938.84;5005314;28;20070;-61
2022/06/09 18:34:37;;;;;;;9.45;2.05;;;;;;;21.19;41.72;101940.00;5005805;28;20482;-60
2022/06/09 18:37:03;;;;;;;7.63;1.70;;;;;;;21.15;42.24;101948.91;5002646;28;20398;-61
2022/06/09 18:39:28;;;;;;;5.97;1.48;;;;;;;21.22;42.69;101945.28;4999374;28;20045;-59
2022/06/09 18:41:55;;;;;;;10.18;2.47;;;;;;;21.22;43.24;101942.63;4998946;28;20132;-58
2022/06/09 18:44:20;;;;;;;8.13;1.92;;;;;;;21.13;43.88;101950.66;4995584;28;20057;-58
2022/06/09 18:46:46;;;;;;;6.85;2.00;;;;;;;21.06;44.22;101947.22;4994196;28;20041;-59
2022/06/09 18:49:11;;;;;;;9.70;2.25;;;;;;;20.93;45.09;101952.69;5000690;28;20516;-62
2022/06/09 18:51:37;;;;;;;11.57;2.30;;;;;;;20.84;45.88;101950.16;4989592;28;20429;-58
2022/06/09 18:54:02;;;;;;;8.05;2.30;;;;;;;20.79;45.63;101957.28;5004766;28;20120;-60
2022/06/09 18:56:28;;;;;;;11.20;2.28;;;;;;;20.55;46.55;101959.28;5007790;28;20049;-58
2022/06/09 18:58:53;;;;;;;10.07;2.15;;;;;;;20.69;46.14;101958.25;5007079;28;20286;-57
2022/06/09 19:01:19;;;;;;;10.27;2.40;;;;;;;20.63;46.31;101959.22;5004856;28;20571;-59
2022/06/09 19:03:45;;;;;;;8.52;2.22;;;;;;;20.55;46.68;101959.28;4993547;28;20269;-58
2022/06/09 19:06:13;;;;;;;9.13;2.03;;;;;;;20.56;47.20;101966.34;5006056;28;20045;-59
2022/06/09 19:08:42;;;;;;;11.15;2.40;;;;;;;20.15;48.38;101966.72;5002366;28;20397;-59
2022/06/09 19:11:11;;;;;;;9.88;2.47;;;;;;;20.21;48.04;101964.00;5002064;28;20432;-61
2022/06/09 19:13:37;;;;;;;7.18;1.90;;;;;;;20.28;48.34;101962.19;4985559;28;20123;-60
2022/06/09 19:16:02;;;;;;;8.60;2.38;;;;;;;20.26;47.69;101967.50;5001408;28;20128;-59
2022/06/09 19:18:28;;;;;;;7.85;1.92;;;;;;;20.22;47.72;101968.44;5001241;28;20548;-58
2022/06/09 19:20:54;;;;;;;10.88;2.40;;;;;;;20.16;48.43;101968.47;5000926;28;20506;-60
2022/06/09 19:23:24;;;;;;;9.73;2.28;;;;;;;20.13;48.19;101968.50;4991658;28;20084;-58
2022/06/09 19:25:52;;;;;;;9.05;2.53;;;;;;;20.01;49.09;101968.59;4998674;28;20060;-58
2022/06/09 19:28:18;;;;;;;7.70;2.33;;;;;;;19.96;49.15;101978.34;5005867;28;20077;-61
2022/06/09 19:30:45;;;;;;;11.55;2.33;;;;;;;19.92;49.14;101973.97;4995570;28;20048;-61
2022/06/09 19:33:13;;;;;;;11.30;2.35;;;;;;;19.77;49.82;101982.91;4997765;28;20936;-60
2022/06/09 19:35:40;;;;;;;10.10;2.25;;;;;;;19.75;49.83;101984.69;4992005;28;20474;-60
2022/06/09 19:38:05;;;;;;;10.32;2.25;;;;;;;19.68;49.58;101985.63;4994835;28;20053;-60
2022/06/09 19:40:31;;;;;;;7.78;1.80;;;;;;;19.63;49.08;101986.53;4997807;28;20428;-59
2022/06/09 19:42:56;;;;;;;10.25;1.85;;;;;;;19.59;49.78;101990.06;4999325;28;20665;-60
2022/06/09 19:45:26;;;;;;;6.43;1.45;;;;;;;19.43;48.90;101991.91;4995252;28;20033;-59
2022/06/09 19:47:53;;;;;;;8.57;1.80;;;;;;;19.50;48.94;101991.03;4994566;28;20040;-62
2022/06/09 19:50:26;;;;;;;7.72;1.60;;;;;;;19.44;49.32;101991.03;4999973;28;20191;-60
2022/06/09 19:52:51;;;;;;;10.60;2.20;;;;;;;19.27;50.59;101995.53;4987343;28;20058;-60
2022/06/09 19:55:17;;;;;;;8.13;1.90;;;;;;;19.17;50.71;102001.72;4999969;28;20107;-59
2022/06/09 19:57:42;;;;;;;12.82;2.10;;;;;;;19.07;51.28;102002.66;4993455;28;20056;-61
2022/06/09 20:00:15;;;;;;;14.68;2.10;;;;;;;18.99;52.02;101997.38;4995470;28;20102;-60
2022/06/09 20:02:40;;;;;;;8.63;2.08;;;;;;;18.91;52.09;102002.69;4999674;28;20117;-61
2022/06/09 20:05:06;;;;;;;10.75;2.35;;;;;;;18.72;52.99;102008.91;5004708;28;20116;-60
2022/06/09 20:07:33;;;;;;;8.25;2.25;;;;;;;18.83;52.55;102004.50;4999359;28;20044;-61
2022/06/09 20:09:58;;;;;;;12.55;2.25;;;;;;;18.61;53.07;102014.19;5002347;28;20029;-60
2022/06/09 20:12:24;;;;;;;8.55;2.17;;;;;;;18.57;53.05;102014.22;5005159;28;20451;-60
2022/06/09 20:14:49;;;;;;;10.32;2.45;;;;;;;18.68;52.96;102014.19;5001165;28;20063;-60
2022/06/09 20:17:18;;;;;;;14.75;2.47;;;;;;;18.56;53.08;102023.00;5000903;28;20171;-60
2022/06/09 20:19:44;;;;;;;9.70;1.90;;;;;;;18.57;53.38;102020.38;4966367;28;20246;-60
2022/06/09 20:22:11;;;;;;;9.00;2.15;;;;;;;18.48;53.62;102022.13;4991714;28;20329;-61
2022/06/09 20:24:37;;;;;;;9.60;2.35;;;;;;;18.42;54.13;102022.97;4988173;28;20049;-59
2022/06/09 20:27:02;;;;;;;8.98;2.22;;;;;;;18.48;54.32;102025.63;4990274;28;20854;-58
2022/06/09 20:29:28;;;;;;;14.27;2.25;;;;;;;18.35;53.87;102023.91;4997508;28;20087;-58
2022/06/09 20:31:54;;;;;;;8.55;2.40;;;;;;;18.28;54.65;102029.16;4990548;28;20146;-58
2022/06/09 20:34:19;;;;;;;15.45;2.20;;;;;;;18.29;54.70;102037.09;4993774;28;20041;-58
2022/06/09 20:36:45;;;;;;;9.57;2.03;;;;;;;18.24;55.07;102030.91;4998083;28;20131;-58
2022/06/09 20:39:12;;;;;;;11.60;1.92;;;;;;;18.20;55.38;102040.59;4993687;28;20125;-59
2022/06/09 20:41:37;;;;;;;11.07;2.10;;;;;;;18.05;56.16;102043.22;4984766;28;20044;-58
2022/06/09 20:44:03;;;;;;;9.65;2.42;;;;;;;17.95;56.03;102040.56;4992372;28;20034;-58
2022/06/09 20:46:36;;;;;;;17.02;2.45;;;;;;;18.01;56.27;102043.22;4999897;28;20048;-58
2022/06/09 20:49:15;;;;;;;8.95;2.13;;;;;;;17.97;56.28;102046.75;5002942;28;20072;-59
2022/06/09 20:51:41;;;;;;;12.00;2.53;;;;;;;17.87;56.73;102052.88;4991536;28;20404;-59
2022/06/09 20:54:08;;;;;;;8.98;2.20;;;;;;;17.76;57.25;102053.72;4986078;28;20603;-60
2022/06/09 20:56:33;;;;;;;8.25;2.47;;;;;;;17.90;56.85;102050.25;5000905;28;20489;-58